createdAt,value
2023-04-07T00:01:32.482Z,8.23
2023-04-07T00:04:35.161Z,8.27
2023-04-07T00:07:48.536Z,8.33
2023-04-07T00:10:59.559Z,8.35
2023-04-07T00:14:02.138Z,8.35
2023-04-07T00:17:07.385Z,8.34
2023-04-07T00:20:10.322Z,8.39
2023-04-07T00:23:12.795Z,8.38
2023-04-07T00:26:16.743Z,8.35
2023-04-07T00:29:19.260Z,8.37
2023-04-07T00:32:22.088Z,8.36
2023-04-07T00:35:24.897Z,8.31
2023-04-07T00:38:27.652Z,8.32
2023-04-07T00:41:31.593Z,8.37
2023-04-07T00:44:34.291Z,8.26
2023-04-07T00:47:37.172Z,8.15
2023-04-07T00:50:39.794Z,8.21
2023-04-07T00:53:42.810Z,8.10
2023-04-07T00:56:46.867Z,8.11
2023-04-07T00:59:49.465Z,8.15
2023-04-07T01:02:58.138Z,8.18
2023-04-07T01:06:02.370Z,8.14
2023-04-07T01:09:07.149Z,8.16
2023-04-07T01:12:19.247Z,8.14
2023-04-07T01:15:24.197Z,8.17
2023-04-07T01:18:30.733Z,8.12
2023-04-07T01:21:34.900Z,8.16
2023-04-07T01:24:55.972Z,8.13
2023-04-07T01:28:15.874Z,8.16
2023-04-07T01:31:19.947Z,8.00
2023-04-07T01:34:23.461Z,7.95
2023-04-07T01:37:27.881Z,8.01
2023-04-07T01:40:30.776Z,7.98
2023-04-07T01:43:33.524Z,8.11
2023-04-07T01:46:37.498Z,8.17
2023-04-07T01:49:41.973Z,8.12
2023-04-07T01:52:44.720Z,8.13
2023-04-07T01:55:47.262Z,8.17
2023-04-07T01:58:49.844Z,8.17
2023-04-07T02:01:53.874Z,8.21
2023-04-07T02:04:57.723Z,8.28
2023-04-07T02:08:00.941Z,8.31
2023-04-07T02:11:04.730Z,8.34
2023-04-07T02:14:08.245Z,8.42
2023-04-07T02:17:13.097Z,8.38
2023-04-07T02:20:17.018Z,8.40
2023-04-07T02:23:19.586Z,8.43
2023-04-07T02:26:22.439Z,8.52
2023-04-07T02:29:24.992Z,8.59
2023-04-07T02:32:28.905Z,8.58
2023-04-07T02:35:31.461Z,8.59
2023-04-07T02:38:34.319Z,8.56
2023-04-07T02:41:36.969Z,8.51
2023-04-07T02:44:39.555Z,8.53
2023-04-07T02:47:43.538Z,8.52
2023-04-07T02:50:46.241Z,8.55
2023-04-07T02:53:48.854Z,8.56
2023-04-07T02:56:51.596Z,8.55
2023-04-07T02:59:55.166Z,8.57
2023-04-07T03:02:59.285Z,8.55
2023-04-07T03:06:01.983Z,8.48
2023-04-07T03:09:04.721Z,8.56
2023-04-07T03:12:07.492Z,8.58
2023-04-07T03:15:10.707Z,8.58
2023-04-07T03:18:14.662Z,8.60
2023-04-07T03:21:17.218Z,8.55
2023-04-07T03:24:19.988Z,8.59
2023-04-07T03:27:22.651Z,8.54
2023-04-07T03:30:26.387Z,8.58
2023-04-07T03:33:30.321Z,8.55
2023-04-07T03:36:33.016Z,8.53
2023-04-07T03:39:37.302Z,8.56
2023-04-07T03:42:39.978Z,8.59
2023-04-07T03:45:42.743Z,8.65
2023-04-07T03:48:46.632Z,8.64
2023-04-07T03:51:49.194Z,8.60
2023-04-07T03:54:51.786Z,8.60
2023-04-07T03:57:54.387Z,8.63
2023-04-07T04:00:56.961Z,8.71
2023-04-07T04:04:00.972Z,8.75
2023-04-07T04:07:03.720Z,8.75
2023-04-07T04:10:07.542Z,8.79
2023-04-07T04:13:10.059Z,8.73
2023-04-07T04:16:15.102Z,8.76
2023-04-07T04:19:19.156Z,8.72
2023-04-07T04:22:21.882Z,8.67
2023-04-07T04:25:25.067Z,8.63
2023-04-07T04:28:27.828Z,8.46
2023-04-07T04:31:30.531Z,8.38
2023-04-07T04:34:34.504Z,8.31
2023-04-07T04:37:37.022Z,8.27
2023-04-07T04:40:39.613Z,8.27
2023-04-07T04:43:42.610Z,8.29
2023-04-07T04:46:45.324Z,8.25
2023-04-07T04:49:49.189Z,8.27
2023-04-07T04:52:51.788Z,8.23
2023-04-07T04:55:54.442Z,8.19
2023-04-07T04:58:57.037Z,8.20
2023-04-07T05:01:59.751Z,8.23
2023-04-07T05:05:03.953Z,8.25
2023-04-07T05:08:07.360Z,8.28
2023-04-07T05:11:09.929Z,8.30
2023-04-07T05:14:12.561Z,8.32
2023-04-07T05:17:15.153Z,8.33
2023-04-07T05:20:19.144Z,8.32
2023-04-07T05:23:21.941Z,8.34
2023-04-07T05:26:24.434Z,8.41
2023-04-07T05:29:26.901Z,8.55
2023-04-07T05:32:29.738Z,8.65
2023-04-07T05:35:33.689Z,8.81
2023-04-07T05:38:36.310Z,8.97
2023-04-07T05:41:38.983Z,9.05
2023-04-07T05:44:41.644Z,9.00
2023-04-07T05:47:44.323Z,9.10
2023-04-07T05:50:48.384Z,9.24
2023-04-07T05:53:51.044Z,9.23
2023-04-07T05:56:53.634Z,9.38
2023-04-07T05:59:56.496Z,9.48
2023-04-07T06:02:59.301Z,9.60
2023-04-07T06:06:03.360Z,9.55
2023-04-07T06:09:07.004Z,9.61
2023-04-07T06:12:12.245Z,9.67
2023-04-07T06:15:14.941Z,9.83
2023-04-07T06:18:17.650Z,9.86
2023-04-07T06:21:21.664Z,9.98
2023-04-07T06:24:25.260Z,10.11
2023-04-07T06:27:27.865Z,10.27
2023-04-07T06:30:30.684Z,10.39
2023-04-07T06:33:33.241Z,10.45
2023-04-07T06:36:37.597Z,10.35
2023-04-07T06:39:40.401Z,10.37
2023-04-07T06:42:42.985Z,10.45
2023-04-07T06:45:45.602Z,10.58
2023-04-07T06:48:48.204Z,10.74
2023-04-07T06:51:52.249Z,11.05
2023-04-07T06:54:54.998Z,11.34
2023-04-07T06:57:57.601Z,11.53
2023-04-07T07:01:00.997Z,11.25
2023-04-07T07:04:03.666Z,11.55
2023-04-07T07:07:07.795Z,11.56
2023-04-07T07:10:11.477Z,11.85
2023-04-07T07:13:13.891Z,12.02
2023-04-07T07:16:16.444Z,11.97
2023-04-07T07:19:19.025Z,11.88
2023-04-07T07:22:23.092Z,11.89
2023-04-07T07:25:26.823Z,12.11
2023-04-07T07:28:29.895Z,12.08
2023-04-07T07:31:32.581Z,11.82
2023-04-07T07:34:35.345Z,11.82
2023-04-07T07:37:39.200Z,11.97
2023-04-07T07:40:41.790Z,11.95
2023-04-07T07:43:44.400Z,11.99
2023-04-07T07:46:47.004Z,11.90
2023-04-07T07:49:49.779Z,11.63
2023-04-07T07:52:54.406Z,11.25
2023-04-07T07:55:56.971Z,11.00
2023-04-07T07:58:59.973Z,10.77
2023-04-07T08:02:02.612Z,10.91
2023-04-07T08:05:05.995Z,11.15
2023-04-07T08:08:09.989Z,11.23
2023-04-07T08:11:12.617Z,11.40
2023-04-07T08:14:15.357Z,11.71
2023-04-07T08:17:18.095Z,12.65
2023-04-07T08:20:24.030Z,13.45
2023-04-07T08:23:34.507Z,13.77
2023-04-07T08:26:44.550Z,14.57
2023-04-07T08:29:47.095Z,15.38
2023-04-07T08:32:50.393Z,15.89
2023-04-07T08:35:53.029Z,15.63
2023-04-07T08:38:56.940Z,15.51
2023-04-07T08:41:59.480Z,15.00
2023-04-07T08:45:04.307Z,14.59
2023-04-07T08:48:11.920Z,14.56
2023-04-07T08:51:15.209Z,13.99
2023-04-07T08:54:21.661Z,13.80
2023-04-07T08:57:24.391Z,13.75
2023-04-07T09:00:27.438Z,13.69
2023-04-07T09:03:31.126Z,13.75
2023-04-07T09:06:34.046Z,13.78
2023-04-07T09:09:38.085Z,14.17
2023-04-07T09:12:41.141Z,14.15
2023-04-07T09:15:43.686Z,14.40
2023-04-07T09:18:46.284Z,14.72
2023-04-07T09:21:50.554Z,14.97
2023-04-07T09:24:54.527Z,14.51
2023-04-07T09:27:58.177Z,13.86
2023-04-07T09:31:00.903Z,14.27
2023-04-07T09:34:04.386Z,14.61
2023-04-07T09:37:09.456Z,15.05
2023-04-07T09:40:13.444Z,15.67
2023-04-07T09:43:17.609Z,16.19
2023-04-07T09:46:20.932Z,16.79
2023-04-07T09:49:24.373Z,17.28
2023-04-07T09:52:31.132Z,17.58
2023-04-07T09:55:35.265Z,18.27
2023-04-07T09:58:39.296Z,18.05
2023-04-07T10:01:46.623Z,18.47
2023-04-07T10:04:51.892Z,18.81
2023-04-07T10:07:54.679Z,18.41
2023-04-07T10:10:58.757Z,17.98
2023-04-07T10:14:01.637Z,18.45
2023-04-07T10:17:05.334Z,18.02
2023-04-07T10:20:09.579Z,17.95
2023-04-07T10:23:17.853Z,17.72
2023-04-07T10:26:25.458Z,17.86
2023-04-07T10:29:30.204Z,17.72
2023-04-07T10:32:32.834Z,18.13
2023-04-07T10:36:06.549Z,18.08
2023-04-07T10:39:22.301Z,18.20
2023-04-07T10:42:50.793Z,18.31
2023-04-07T10:45:59.512Z,17.99
2023-04-07T10:49:09.786Z,17.87
2023-04-07T10:52:24.014Z,18.16
2023-04-07T10:55:31.772Z,18.45
2023-04-07T10:58:36.056Z,18.48
2023-04-07T11:01:38.674Z,18.48
2023-04-07T11:04:42.705Z,18.69
2023-04-07T11:07:54.988Z,18.66
2023-04-07T11:10:57.488Z,19.26
2023-04-07T11:14:28.097Z,19.89
2023-04-07T11:17:30.857Z,19.31
2023-04-07T11:20:46.148Z,19.66
2023-04-07T11:23:49.360Z,19.10
2023-04-07T11:26:52.525Z,18.57
2023-04-07T11:29:57.660Z,18.41
2023-04-07T11:33:00.298Z,18.14
2023-04-07T11:36:03.887Z,17.81
2023-04-07T11:39:06.819Z,17.76
2023-04-07T11:42:09.421Z,17.52
2023-04-07T11:45:19.593Z,17.74
2023-04-07T11:48:30.966Z,17.81
2023-04-07T11:51:33.516Z,17.54
2023-04-07T11:54:43.092Z,16.32
2023-04-07T11:57:45.794Z,15.71
2023-04-07T12:01:03.551Z,15.40
2023-04-07T12:04:06.503Z,14.83
2023-04-07T12:07:10.437Z,15.37
2023-04-07T12:10:20.104Z,14.58
2023-04-07T12:13:22.708Z,13.99
2023-04-07T12:16:26.880Z,13.39
2023-04-07T12:19:30.369Z,12.52
2023-04-07T12:22:33.223Z,12.09
2023-04-07T12:25:36.341Z,12.06
2023-04-07T12:28:38.887Z,11.84
2023-04-07T12:31:43.661Z,11.70
2023-04-07T12:34:47.836Z,11.71
2023-04-07T12:37:51.891Z,11.94
2023-04-07T12:40:54.433Z,12.08
2023-04-07T12:43:57.041Z,12.48
2023-04-07T12:47:01.687Z,13.10
2023-04-07T12:50:04.818Z,13.43
2023-04-07T12:53:07.427Z,13.89
2023-04-07T12:56:10.046Z,13.89
2023-04-07T12:59:12.982Z,14.26
2023-04-07T13:02:19.127Z,13.98
2023-04-07T13:05:22.176Z,14.32
2023-04-07T13:08:24.879Z,14.34
2023-04-07T13:11:27.672Z,14.61
2023-04-07T13:14:30.251Z,15.13
2023-04-07T13:17:36.395Z,15.35
2023-04-07T13:20:38.975Z,15.46
2023-04-07T13:23:43.892Z,15.25
2023-04-07T13:26:46.905Z,15.20
2023-04-07T13:29:49.450Z,15.76
2023-04-07T13:32:53.316Z,15.67
2023-04-07T13:35:55.945Z,15.21
2023-04-07T13:38:58.690Z,14.68
2023-04-07T13:42:01.876Z,14.62
2023-04-07T13:45:04.956Z,14.45
2023-04-07T13:48:08.842Z,14.32
2023-04-07T13:51:11.525Z,14.20
2023-04-07T13:54:13.990Z,14.39
2023-04-07T13:57:21.014Z,14.58
2023-04-07T14:00:23.772Z,14.83
2023-04-07T14:03:28.236Z,15.19
2023-04-07T14:06:31.583Z,15.29
2023-04-07T14:09:34.191Z,15.07
2023-04-07T14:12:37.051Z,15.19
2023-04-07T14:15:39.774Z,15.80
2023-04-07T14:18:43.686Z,15.66
2023-04-07T14:21:46.317Z,16.17
2023-04-07T14:24:48.822Z,16.73
2023-04-07T14:27:52.316Z,16.13
2023-04-07T14:30:55.046Z,16.40
2023-04-07T14:33:58.921Z,15.92
2023-04-07T14:37:01.704Z,16.24
2023-04-07T14:40:05.034Z,16.36
2023-04-07T14:43:07.959Z,16.30
2023-04-07T14:46:12.288Z,15.63
2023-04-07T14:49:16.589Z,15.73
2023-04-07T14:52:20.507Z,15.87
2023-04-07T14:55:23.557Z,15.64
2023-04-07T14:58:26.120Z,15.33
2023-04-07T15:01:28.906Z,15.14
2023-04-07T15:04:33.179Z,15.22
2023-04-07T15:07:36.337Z,15.20
2023-04-07T15:10:39.213Z,15.41
2023-04-07T15:13:41.758Z,15.29
2023-04-07T15:16:44.255Z,15.32
2023-04-07T15:19:48.202Z,15.04
2023-04-07T15:22:51.123Z,15.27
2023-04-07T15:25:56.109Z,15.32
2023-04-07T15:28:58.674Z,15.19
2023-04-07T15:32:01.911Z,15.40
2023-04-07T15:35:06.705Z,15.89
2023-04-07T15:38:09.246Z,16.47
2023-04-07T15:41:15.421Z,16.44
2023-04-07T15:44:18.914Z,16.43
2023-04-07T15:47:21.328Z,18.05
2023-04-07T15:50:25.501Z,18.25
2023-04-07T15:53:28.156Z,19.67
2023-04-07T15:56:30.842Z,20.86
2023-04-07T15:59:34.243Z,20.82
2023-04-07T16:02:36.993Z,20.39
2023-04-07T16:05:40.995Z,18.94
2023-04-07T16:08:43.815Z,20.56
2023-04-07T16:11:46.358Z,19.17
2023-04-07T16:14:50.276Z,17.59
2023-04-07T16:17:52.920Z,16.34
2023-04-07T16:20:56.898Z,16.04
2023-04-07T16:23:59.411Z,15.96
2023-04-07T16:27:04.178Z,15.67
2023-04-07T16:30:08.270Z,15.28
2023-04-07T16:33:11.014Z,14.65
2023-04-07T16:36:15.328Z,14.45
2023-04-07T16:39:18.565Z,14.39
2023-04-07T16:42:21.524Z,14.00
2023-04-07T16:45:24.108Z,14.00
2023-04-07T16:48:27.063Z,14.17
2023-04-07T16:51:31.815Z,14.18
2023-04-07T16:54:35.333Z,14.13
2023-04-07T16:57:37.838Z,13.85
2023-04-07T17:00:40.446Z,13.82
2023-04-07T17:03:43.298Z,13.93
2023-04-07T17:06:47.383Z,13.90
2023-04-07T17:09:50.134Z,13.49
2023-04-07T17:12:56.058Z,13.25
2023-04-07T17:15:58.795Z,13.21
2023-04-07T17:19:01.779Z,13.18
2023-04-07T17:22:06.001Z,13.21
2023-04-07T17:25:09.620Z,13.14
2023-04-07T17:28:12.021Z,13.01
2023-04-07T17:31:14.678Z,12.85
2023-04-07T17:34:17.405Z,12.71
2023-04-07T17:37:21.558Z,12.67
2023-04-07T17:40:24.460Z,12.68
2023-04-07T17:43:27.088Z,12.65
2023-04-07T17:46:29.889Z,12.50
2023-04-07T17:49:32.526Z,12.26
2023-04-07T17:52:36.443Z,12.05
2023-04-07T17:55:39.134Z,12.11
2023-04-07T17:58:41.810Z,12.01
2023-04-07T18:01:44.460Z,12.19
2023-04-07T18:04:47.092Z,11.85
2023-04-07T18:07:51.086Z,11.80
2023-04-07T18:10:53.625Z,11.75
2023-04-07T18:13:56.470Z,11.86
2023-04-07T18:16:59.142Z,11.58
2023-04-07T18:20:02.135Z,11.56
2023-04-07T18:23:06.195Z,11.61
2023-04-07T18:26:08.811Z,11.28
2023-04-07T18:29:12.323Z,11.14
2023-04-07T18:32:14.868Z,11.09
2023-04-07T18:35:17.396Z,11.09
2023-04-07T18:38:21.355Z,11.00
2023-04-07T18:41:23.918Z,10.92
2023-04-07T18:44:28.445Z,10.99
2023-04-07T18:47:30.967Z,11.09
2023-04-07T18:50:33.553Z,11.00
2023-04-07T18:53:37.603Z,11.01
2023-04-07T18:56:40.210Z,10.94
2023-04-07T18:59:43.737Z,10.68
2023-04-07T19:02:47.496Z,10.68
2023-04-07T19:05:52.505Z,10.58
2023-04-07T19:08:56.854Z,10.47
2023-04-07T19:11:59.426Z,10.38
2023-04-07T19:15:01.903Z,10.31
2023-04-07T19:18:04.831Z,10.33
2023-04-07T19:21:07.972Z,10.25
2023-04-07T19:24:11.828Z,10.27
2023-04-07T19:27:14.707Z,10.14
2023-04-07T19:30:17.575Z,9.96
2023-04-07T19:33:20.543Z,9.96
2023-04-07T19:36:23.116Z,10.00
2023-04-07T19:39:27.235Z,9.89
2023-04-07T19:42:29.864Z,9.98
2023-04-07T19:45:32.574Z,10.12
2023-04-07T19:48:35.383Z,10.18
2023-04-07T19:51:38.035Z,10.28
2023-04-07T19:54:42.204Z,10.36
2023-04-07T19:57:44.700Z,10.33
2023-04-07T20:00:49.685Z,10.37
2023-04-07T20:03:52.446Z,10.37
2023-04-07T20:06:55.278Z,10.36
2023-04-07T20:09:59.924Z,10.33
2023-04-07T20:13:03.370Z,10.28
2023-04-07T20:16:06.807Z,10.29
2023-04-07T20:19:09.518Z,10.33
2023-04-07T20:22:12.088Z,10.52
2023-04-07T20:25:16.173Z,10.45
2023-04-07T20:28:18.667Z,10.57
2023-04-07T20:31:21.595Z,10.56
2023-04-07T20:34:24.101Z,10.54
2023-04-07T20:37:27.862Z,10.54
2023-04-07T20:40:35.181Z,10.53
2023-04-07T20:43:37.803Z,10.50
2023-04-07T20:46:40.690Z,10.52
2023-04-07T20:49:43.795Z,10.38
2023-04-07T20:52:46.446Z,10.43
2023-04-07T20:55:50.562Z,10.12
2023-04-07T20:58:53.137Z,10.21
2023-04-07T21:01:56.450Z,10.23
2023-04-07T21:04:59.332Z,10.26
2023-04-07T21:08:02.022Z,10.32
2023-04-07T21:11:06.147Z,10.41
2023-04-07T21:14:08.613Z,10.44
2023-04-07T21:17:11.219Z,10.34
2023-04-07T21:20:14.014Z,10.30
2023-04-07T21:23:16.666Z,10.55
2023-04-07T21:26:20.904Z,10.54
2023-04-07T21:29:23.417Z,10.52
2023-04-07T21:32:26.129Z,10.64
2023-04-07T21:35:29.319Z,10.59
2023-04-07T21:38:32.081Z,10.58
2023-04-07T21:41:36.505Z,10.54
2023-04-07T21:44:39.152Z,10.54
2023-04-07T21:47:41.769Z,10.44
2023-04-07T21:50:44.340Z,10.46
2023-04-07T21:53:46.858Z,10.44
2023-04-07T21:56:51.549Z,10.40
2023-04-07T21:59:54.074Z,10.27
2023-04-07T22:02:56.867Z,10.26
2023-04-07T22:05:59.903Z,10.35
2023-04-07T22:09:02.666Z,10.28
2023-04-07T22:12:06.590Z,10.41
2023-04-07T22:15:10.924Z,10.33
2023-04-07T22:18:13.676Z,10.24
2023-04-07T22:21:16.577Z,10.03
2023-04-07T22:24:19.170Z,10.16
2023-04-07T22:27:23.091Z,10.25
2023-04-07T22:30:26.133Z,10.29
2023-04-07T22:33:29.095Z,10.33
2023-04-07T22:36:33.501Z,10.40
2023-04-07T22:39:36.103Z,10.51
2023-04-07T22:42:40.566Z,10.50
2023-04-07T22:45:43.101Z,10.32
2023-04-07T22:48:45.585Z,10.29
2023-04-07T22:51:48.634Z,10.35
2023-04-07T22:54:51.293Z,10.25
2023-04-07T22:57:55.304Z,10.17
2023-04-07T23:00:57.916Z,10.20
2023-04-07T23:04:00.840Z,10.07
2023-04-07T23:07:03.402Z,10.07
2023-04-07T23:10:07.962Z,10.08
2023-04-07T23:13:13.324Z,10.03
2023-04-07T23:16:16.544Z,10.01
2023-04-07T23:19:19.170Z,9.84
2023-04-07T23:22:22.061Z,9.96
2023-04-07T23:25:24.780Z,10.06
2023-04-07T23:28:28.897Z,9.97
2023-04-07T23:31:32.116Z,10.00
2023-04-07T23:34:34.760Z,10.03
2023-04-07T23:37:37.308Z,9.98
2023-04-07T23:40:39.811Z,9.99
2023-04-07T23:43:43.759Z,9.97
2023-04-07T23:46:46.265Z,9.96
2023-04-07T23:49:48.922Z,10.05
2023-04-07T23:52:51.461Z,10.15
2023-04-07T23:55:54.131Z,10.05
2023-04-07T23:58:58.011Z,9.79
